Time;durP1;ratioP1;P1;durP2;ratioP2;P2;SDS_P1;SDS_P2;PMS_P1;PMS_P2;Temp;Humidity;BMP_temperature;BMP_pressure;BME280_temperature;BME280_humidity;BME280_pressure;Samples;Min_cycle;Max_cycle;Signal;HPM_P1;HPM_P2
2022/04/09 00:02:55;;;;;;;15.77;3.10;;;;;;;5.31;99.48;100540.78;10381611;28;20034;-78
2022/04/09 00:07:55;;;;;;;49.78;6.32;;;;;;;5.59;99.75;100537.69;10381821;28;20113;-78
2022/04/09 00:12:55;;;;;;;14.18;4.10;;;;;;;5.68;97.79;100551.91;10381455;28;20033;-79
2022/04/09 00:17:56;;;;;;;4.82;2.67;;;;;;;5.69;97.31;100558.97;10383080;28;20072;-78
2022/04/09 00:22:56;;;;;;;9.68;3.45;;;;;;;5.52;94.23;100575.16;10380750;28;20066;-78
2022/04/09 00:27:56;;;;;;;19.27;3.83;;;;;;;5.30;93.41;100579.41;10379999;28;20065;-78
2022/04/09 00:32:57;;;;;;;14.32;4.28;;;;;;;5.13;94.46;100577.75;10379792;28;20022;-78
2022/04/09 00:37:57;;;;;;;11.57;3.88;;;;;;;5.07;95.95;100581.09;10379722;28;20072;-77
2022/04/09 00:42:58;;;;;;;12.68;3.60;;;;;;;5.13;97.84;100600.03;10378634;28;20042;-78
2022/04/09 00:47:59;;;;;;;12.68;5.15;;;;;;;5.26;99.64;100607.56;10379781;28;20042;-79
2022/04/09 00:52:59;;;;;;;15.38;5.35;;;;;;;5.26;98.83;100609.44;10378293;28;20045;-79
2022/04/09 00:57:59;;;;;;;18.90;3.30;;;;;;;5.13;98.62;100613.47;10377644;28;20042;-77
2022/04/09 01:03:00;;;;;;;10.50;3.03;;;;;;;5.09;97.83;100616.66;10361666;28;20089;-78
2022/04/09 01:08:00;;;;;;;19.15;4.35;;;;;;;5.05;97.22;100629.59;10378317;28;20038;-78
2022/04/09 01:13:01;;;;;;;9.20;4.13;;;;;;;5.00;97.83;100641.81;10378631;28;20084;-79
2022/04/09 01:18:01;;;;;;;12.95;5.25;;;;;;;5.00;99.29;100650.72;10378022;28;20034;-78
2022/04/09 01:23:01;;;;;;;17.20;3.97;;;;;;;5.21;100.00;100654.75;10377144;28;20054;-78
2022/04/09 01:28:02;;;;;;;12.63;3.50;;;;;;;5.42;99.08;100670.31;10377641;28;20042;-76
2022/04/09 01:33:02;;;;;;;10.75;3.03;;;;;;;5.42;95.86;100686.44;10377567;28;20076;-78
2022/04/09 01:38:03;;;;;;;5.38;2.83;;;;;;;5.39;94.81;100713.63;10377774;28;20050;-77
2022/04/09 01:43:03;;;;;;;2.13;2.00;;;;;;;5.10;95.50;100709.59;10376526;28;20065;-78
2022/04/09 01:48:04;;;;;;;4.40;2.80;;;;;;;4.72;98.00;100703.00;10377410;28;20469;-79
2022/04/09 01:53:04;;;;;;;6.47;1.83;;;;;;;4.63;98.58;100707.53;10376957;28;20030;-78
2022/04/09 01:58:05;;;;;;;8.90;3.10;;;;;;;4.42;98.40;100706.09;10376923;28;20046;-78
2022/04/09 02:03:05;;;;;;;6.57;2.95;;;;;;;4.23;97.65;100716.25;10377879;28;20133;-79
2022/04/09 02:08:06;;;;;;;10.18;3.45;;;;;;;4.08;97.82;100716.00;10376058;28;20112;-78
2022/04/09 02:13:11;;;;;;;10.27;2.70;;;;;;;3.95;97.90;100724.47;10374633;28;20026;-79
2022/04/09 02:18:12;;;;;;;10.73;3.70;;;;;;;3.93;98.08;100732.69;10373891;28;20071;-77
2022/04/09 02:23:12;;;;;;;12.13;5.20;;;;;;;3.88;97.96;100743.00;10375755;28;20512;-79
2022/04/09 02:28:13;;;;;;;15.02;3.53;;;;;;;3.84;97.78;100743.50;10375303;28;20056;-78
2022/04/09 02:33:13;;;;;;;7.70;4.40;;;;;;;3.90;99.66;100746.38;10376033;28;20041;-73
2022/04/09 02:38:13;;;;;;;14.20;3.40;;;;;;;3.99;100.00;100757.13;10374769;28;20551;-74
2022/04/09 02:43:14;;;;;;;14.20;4.75;;;;;;;4.13;99.94;100759.25;10373699;28;20037;-73
2022/04/09 02:48:15;;;;;;;12.73;4.18;;;;;;;4.22;99.59;100758.28;10375174;28;20034;-73
2022/04/09 02:53:15;;;;;;;11.63;2.63;;;;;;;4.26;99.11;100773.06;10374492;28;20041;-74
2022/04/09 02:58:16;;;;;;;5.65;2.92;;;;;;;4.26;99.03;100769.53;10373903;28;20045;-73
2022/04/09 03:03:16;;;;;;;4.55;3.05;;;;;;;4.22;97.98;100774.38;10374214;28;20382;-73
2022/04/09 03:08:16;;;;;;;15.50;3.20;;;;;;;4.16;98.38;100766.97;10375317;28;20037;-74
2022/04/09 03:13:17;;;;;;;12.02;3.47;;;;;;;4.10;99.44;100781.84;10374621;28;20184;-74
2022/04/09 03:18:17;;;;;;;14.35;4.68;;;;;;;4.22;98.76;100790.47;10374029;28;20099;-73
2022/04/09 03:23:18;;;;;;;13.18;3.58;;;;;;;4.33;100.00;100786.66;10374371;28;20073;-73
2022/04/09 03:28:18;;;;;;;14.23;3.70;;;;;;;4.36;100.00;100797.06;10374991;28;20053;-73
2022/04/09 03:33:18;;;;;;;11.85;3.08;;;;;;;4.45;100.00;100801.47;10373037;28;20069;-74
2022/04/09 03:38:19;;;;;;;7.13;2.88;;;;;;;4.51;100.00;100795.47;10373008;28;20391;-74
2022/04/09 03:43:19;;;;;;;8.05;3.03;;;;;;;4.80;100.00;100810.34;10377423;28;20034;-73
2022/04/09 03:48:20;;;;;;;20.60;5.18;;;;;;;4.85;99.53;100816.91;10380297;28;20033;-73
2022/04/09 03:53:20;;;;;;;11.93;3.20;;;;;;;4.83;98.78;100816.22;10381135;28;20374;-74
2022/04/09 03:58:22;;;;;;;13.82;4.40;;;;;;;4.86;98.54;100828.47;10379573;28;20037;-73
2022/04/09 04:03:22;;;;;;;9.95;3.67;;;;;;;4.80;98.27;100832.63;10381231;28;20037;-73
2022/04/09 04:08:22;;;;;;;15.02;4.75;;;;;;;4.86;99.15;100848.09;10378678;28;20462;-73
2022/04/09 04:13:23;;;;;;;15.23;3.63;;;;;;;4.84;99.86;100852.75;10378191;28;20030;-73
2022/04/09 04:18:23;;;;;;;11.43;3.92;;;;;;;4.95;99.00;100858.88;10378852;28;20034;-73
2022/04/09 04:23:24;;;;;;;11.75;3.85;;;;;;;4.95;99.27;100862.38;10379864;28;20378;-73
2022/04/09 04:28:24;;;;;;;14.20;4.22;;;;;;;4.96;97.94;100868.59;10379551;28;20049;-74
2022/04/09 04:33:24;;;;;;;12.80;3.63;;;;;;;4.87;98.02;100870.38;10378313;28;20531;-73
2022/04/09 04:38:27;;;;;;;12.13;5.38;;;;;;;5.08;100.00;100883.41;10378464;28;20096;-74
2022/04/09 04:43:27;;;;;;;15.88;4.22;;;;;;;5.27;100.00;100888.50;10378950;28;20095;-74
2022/04/09 04:48:28;;;;;;;16.30;4.68;;;;;;;5.40;100.00;100888.03;10377240;28;20108;-73
2022/04/09 04:53:28;;;;;;;12.65;5.15;;;;;;;5.43;100.00;100893.06;10377269;28;20128;-73
2022/04/09 04:58:29;;;;;;;18.20;5.40;;;;;;;5.33;100.00;100908.50;10376822;28;20037;-74
2022/04/09 05:03:29;;;;;;;17.70;5.68;;;;;;;5.17;100.00;100903.91;10377663;28;20036;-73
2022/04/09 05:08:30;;;;;;;16.40;4.47;;;;;;;5.28;100.00;100894.69;10377502;28;20049;-73
2022/04/09 05:13:31;;;;;;;13.60;3.90;;;;;;;5.35;100.00;100903.78;10376024;28;20125;-73
2022/04/09 05:18:32;;;;;;;15.35;3.75;;;;;;;5.44;100.00;100923.44;10359565;28;20092;-73
2022/04/09 05:23:32;;;;;;;26.92;5.45;;;;;;;5.58;100.00;100936.22;10377113;28;20054;-74
2022/04/09 05:28:33;;;;;;;11.57;5.03;;;;;;;5.63;100.00;100947.34;10377884;28;20450;-74
2022/04/09 05:33:33;;;;;;;10.98;3.95;;;;;;;5.69;100.00;100960.13;10358542;28;20030;-73
2022/04/09 05:38:34;;;;;;;24.75;5.35;;;;;;;5.60;100.00;100961.94;10374451;28;20088;-73
2022/04/09 05:43:34;;;;;;;9.05;4.10;;;;;;;5.51;99.52;100962.91;10376738;28;20037;-73
2022/04/09 05:48:35;;;;;;;7.85;3.70;;;;;;;5.47;99.24;100968.78;10375007;28;20474;-73
2022/04/09 05:53:35;;;;;;;3.80;3.35;;;;;;;5.46;100.00;100975.16;10375996;28;20040;-73
2022/04/09 05:58:38;;;;;;;15.43;3.95;;;;;;;5.36;100.00;100981.50;10375726;28;20061;-74
2022/04/09 06:03:39;;;;;;;6.65;2.97;;;;;;;5.27;100.00;100984.31;10375454;28;20045;-73
2022/04/09 06:08:40;;;;;;;12.23;4.57;;;;;;;5.34;100.00;100996.91;10375414;28;20045;-74
2022/04/09 06:13:40;;;;;;;7.90;3.42;;;;;;;5.35;100.00;100998.59;10377013;28;20487;-73
2022/04/09 06:18:41;;;;;;;12.40;3.28;;;;;;;5.52;100.00;101014.78;10374166;28;20034;-73
2022/04/09 06:23:41;;;;;;;11.38;5.15;;;;;;;5.78;100.00;101014.72;10374360;28;20056;-74
2022/04/09 06:28:42;;;;;;;11.68;4.32;;;;;;;5.75;100.00;101020.41;10357067;28;20120;-73
2022/04/09 06:33:42;;;;;;;11.48;4.05;;;;;;;5.63;100.00;101022.56;10373828;28;20057;-74
2022/04/09 06:38:43;;;;;;;20.70;5.97;;;;;;;5.55;99.56;101033.25;10374821;28;20092;-73
2022/04/09 06:43:43;;;;;;;11.88;4.82;;;;;;;5.52;100.00;101047.00;10374450;28;20045;-73
2022/04/09 06:48:43;;;;;;;7.93;3.90;;;;;;;5.46;100.00;101050.38;10373973;28;20463;-74
2022/04/09 06:53:44;;;;;;;14.02;4.65;;;;;;;5.61;100.00;101064.84;10357004;28;20088;-73
2022/04/09 06:58:44;;;;;;;9.30;4.45;;;;;;;6.92;100.00;101079.44;10356990;28;20113;-73
2022/04/09 07:03:44;;;;;;;15.18;5.20;;;;;;;6.94;98.90;101085.47;10374997;28;20041;-73
2022/04/09 07:08:45;;;;;;;11.27;4.68;;;;;;;6.65;99.04;101107.53;10372090;28;20544;-74
2022/04/09 07:13:45;;;;;;;10.75;3.58;;;;;;;6.10;100.00;101108.09;10375318;28;20030;-74
2022/04/09 07:18:46;;;;;;;8.43;3.17;;;;;;;5.80;100.00;101109.44;10379516;28;20381;-75
2022/04/09 07:23:46;;;;;;;9.90;4.47;;;;;;;5.83;100.00;101136.00;10357503;28;20046;-75
2022/04/09 07:28:46;;;;;;;9.65;3.22;;;;;;;5.77;100.00;101137.47;10390691;28;20038;-77
2022/04/09 07:33:47;;;;;;;4.65;1.73;;;;;;;5.46;100.00;101161.31;10393329;28;20038;-77
2022/04/09 07:38:47;;;;;;;2.60;2.08;;;;;;;4.95;100.00;101156.72;10381345;28;20042;-78
2022/04/09 07:43:48;;;;;;;1.42;1.33;;;;;;;4.87;100.00;101142.22;10381402;28;20038;-77
2022/04/09 07:48:48;;;;;;;6.90;1.70;;;;;;;5.03;100.00;101146.06;10385496;28;20059;-76
2022/04/09 07:53:48;;;;;;;2.40;2.20;;;;;;;5.35;100.00;101153.50;10379769;28;20386;-75
2022/04/09 07:58:49;;;;;;;5.25;2.30;;;;;;;6.14;100.00;101155.16;10380174;28;20052;-75
2022/04/09 08:03:49;;;;;;;6.50;2.30;;;;;;;9.06;100.00;101164.69;10381084;28;20045;-75
2022/04/09 08:08:50;;;;;;;11.93;4.10;;;;;;;10.66;96.87;101156.97;10379989;28;20428;-76
2022/04/09 08:13:50;;;;;;;4.90;3.17;;;;;;;11.47;93.32;101172.94;10378327;28;20124;-76
2022/04/09 08:18:51;;;;;;;9.80;3.83;;;;;;;11.14;92.88;101178.94;10379964;28;20434;-76
2022/04/09 08:23:51;;;;;;;16.80;4.78;;;;;;;11.61;91.68;101184.72;10378185;28;20061;-76
2022/04/09 08:28:52;;;;;;;44.30;25.25;;;;;;;11.26;94.11;101173.81;10378318;28;20045;-77
2022/04/09 08:33:53;;;;;;;12.05;4.72;;;;;;;12.59;88.45;101187.38;10379306;28;20034;-77
2022/04/09 08:38:55;;;;;;;8.35;4.80;;;;;;;13.07;78.36;101185.41;10377525;28;20534;-77
2022/04/09 08:43:56;;;;;;;16.90;5.78;;;;;;;12.91;83.56;101189.34;10379615;28;20133;-77
2022/04/09 08:48:57;;;;;;;14.05;5.60;;;;;;;12.43;87.66;101192.13;10377633;28;20053;-77
2022/04/09 08:54:00;;;;;;;4.50;3.50;;;;;;;12.37;80.57;101201.06;10378401;28;20041;-77
2022/04/09 08:59:01;;;;;;;19.90;6.10;;;;;;;13.17;78.97;101213.03;10377209;28;20038;-77
2022/04/09 09:04:02;;;;;;;48.58;19.73;;;;;;;14.26;76.97;101203.53;10378078;28;20034;-76
2022/04/09 09:09:04;;;;;;;27.77;12.40;;;;;;;13.59;75.87;101224.63;10377779;28;20048;-76
2022/04/09 09:14:05;;;;;;;15.50;8.07;;;;;;;13.86;80.02;101224.59;10377207;28;20030;-76
2022/04/09 09:19:06;;;;;;;12.05;3.90;;;;;;;12.65;78.39;101228.16;10375873;28;20038;-76
2022/04/09 09:24:06;;;;;;;20.45;3.58;;;;;;;12.82;82.15;101241.38;10359347;28;20046;-76
2022/04/09 09:29:08;;;;;;;10.18;3.40;;;;;;;13.99;76.15;101240.91;10376700;28;20036;-76
2022/04/09 09:34:12;;;;;;;3.03;2.15;;;;;;;14.66;70.20;101238.84;10376552;28;20426;-76
2022/04/09 09:39:13;;;;;;;5.47;1.95;;;;;;;14.88;71.83;101244.84;10377665;28;20402;-77
2022/04/09 09:44:14;;;;;;;10.43;2.78;;;;;;;13.88;79.11;101250.56;10376443;28;20038;-76
2022/04/09 09:49:20;;;;;;;14.02;2.45;;;;;;;14.42;80.99;101254.84;10376354;28;20468;-76
2022/04/09 09:54:20;;;;;;;13.60;3.13;;;;;;;15.06;73.42;101250.41;10374796;28;20401;-75
2022/04/09 09:59:21;;;;;;;7.18;4.00;;;;;;;15.32;71.51;101257.59;10374364;28;20041;-77
2022/04/09 10:04:22;;;;;;;7.75;2.58;;;;;;;15.17;70.22;101270.69;10375443;28;20049;-76
2022/04/09 10:09:23;;;;;;;3.70;2.85;;;;;;;16.07;66.82;101273.16;10375085;28;20485;-78
2022/04/09 10:14:24;;;;;;;3.08;1.85;;;;;;;16.09;75.74;101276.53;10374087;28;20100;-77
2022/04/09 10:19:25;;;;;;;8.45;3.05;;;;;;;15.09;72.27;101293.63;10357681;28;20156;-77
2022/04/09 10:24:26;;;;;;;10.48;2.95;;;;;;;16.04;75.46;101290.00;10377573;28;20108;-77
2022/04/09 10:29:26;;;;;;;5.30;2.38;;;;;;;16.60;69.15;101299.97;10385348;28;20050;-75
2022/04/09 10:34:27;;;;;;;2.22;2.03;;;;;;;16.14;78.36;101306.72;10376690;28;20045;-75
2022/04/09 10:39:49;;;;;;;4.82;2.72;;;;;;;17.17;69.33;101310.66;10357812;28;20042;-76
2022/04/09 10:44:50;;;;;;;7.03;3.40;;;;;;;17.12;64.37;101321.44;10376752;28;20049;-77
2022/04/09 10:50:05;;;;;;;11.80;3.63;;;;;;;17.43;66.41;101320.41;10376168;28;20048;-77
2022/04/09 10:55:20;;;;;;;4.20;2.97;;;;;;;15.67;72.00;101322.69;10388364;28;20099;-75
2022/04/09 11:00:23;;;;;;;3.50;3.05;;;;;;;15.34;82.77;101329.13;10386980;28;20030;-77
2022/04/09 11:05:23;;;;;;;11.10;4.03;;;;;;;14.76;81.84;101331.09;10383634;28;20038;-77
2022/04/09 11:10:24;;;;;;;6.50;2.67;;;;;;;13.68;80.45;101339.53;10394675;28;20045;-77
2022/04/09 11:15:24;;;;;;;3.58;2.13;;;;;;;14.69;89.53;101335.72;10382902;28;20053;-76
2022/04/09 11:20:26;;;;;;;6.78;1.90;;;;;;;14.53;78.11;101337.84;10383120;28;20084;-78
2022/04/09 11:25:28;;;;;;;2.72;2.53;;;;;;;13.68;78.49;101353.13;10363348;28;20084;-79
2022/04/09 11:30:28;;;;;;;4.30;2.30;;;;;;;13.50;77.17;101359.19;10365355;28;20045;-78
2022/04/09 11:35:35;;;;;;;17.77;3.30;;;;;;;13.14;86.41;101354.84;10382193;28;20076;-78
2022/04/09 11:40:35;;;;;;;4.25;2.55;;;;;;;14.45;83.19;101369.91;10380664;28;20041;-78
2022/04/09 11:45:36;;;;;;;5.72;2.47;;;;;;;13.76;78.12;101372.00;10347358;28;20038;-78
2022/04/09 11:50:39;;;;;;;8.38;2.25;;;;;;;13.05;82.89;101364.22;10381168;28;20084;-77
2022/04/09 11:55:40;;;;;;;10.18;2.55;;;;;;;12.17;82.66;101382.06;10379204;28;20124;-77
2022/04/09 12:00:42;;;;;;;2.63;2.15;;;;;;;12.78;85.59;101376.84;10379762;28;20138;-76
2022/04/09 12:05:46;;;;;;;4.90;2.22;;;;;;;12.90;79.71;101383.38;10380504;28;20041;-77
2022/04/09 12:10:53;;;;;;;2.55;2.30;;;;;;;13.66;82.08;101386.00;10366146;28;20042;-75
2022/04/09 12:15:55;;;;;;;6.03;2.45;;;;;;;14.32;81.94;101385.22;10388127;28;20513;-75
2022/04/09 12:20:55;;;;;;;5.45;2.88;;;;;;;14.38;79.60;101392.53;10374741;28;20351;-75
2022/04/09 12:25:56;;;;;;;4.90;2.80;;;;;;;15.59;80.71;101380.22;10395731;28;20054;-76
2022/04/09 12:30:56;;;;;;;7.55;2.95;;;;;;;16.32;82.07;101382.47;10393325;28;20033;-76
2022/04/09 12:36:07;;;;;;;5.53;2.38;;;;;;;15.81;78.66;101400.72;10400498;28;20436;-76
2022/04/09 12:41:08;;;;;;;2.03;1.83;;;;;;;13.82;82.65;101408.44;10380797;28;20034;-76
2022/04/09 12:46:13;;;;;;;2.78;1.33;;;;;;;13.53;79.39;101404.16;10378421;28;20034;-77
2022/04/09 12:51:15;;;;;;;6.85;2.40;;;;;;;14.88;83.61;101406.56;10378226;28;20053;-77
2022/04/09 12:56:16;;;;;;;2.42;2.22;;;;;;;15.95;87.69;101414.28;10378702;28;20038;-77
2022/04/09 13:01:19;;;;;;;2.38;1.88;;;;;;;16.10;76.15;101419.44;10380124;28;20061;-78
2022/04/09 13:06:19;;;;;;;1.75;1.40;;;;;;;15.87;70.23;101407.19;10383685;28;20049;-78
2022/04/09 13:11:20;;;;;;;2.55;1.70;;;;;;;15.18;79.51;101427.03;10385310;28;20049;-77
2022/04/09 13:16:20;;;;;;;4.25;1.73;;;;;;;15.44;86.81;101426.91;10384257;28;20089;-76
2022/04/09 13:21:21;;;;;;;9.75;2.65;;;;;;;15.45;79.80;101428.59;10363137;28;20073;-76
2022/04/09 13:26:21;;;;;;;2.03;1.90;;;;;;;15.13;78.01;101424.13;10384927;28;20520;-76
2022/04/09 13:31:22;;;;;;;2.15;1.85;;;;;;;14.46;81.37;101424.22;10383968;28;20037;-75
2022/04/09 13:36:22;;;;;;;2.17;1.50;;;;;;;14.01;83.93;101440.31;10388287;28;20037;-76
2022/04/09 13:41:31;;;;;;;4.22;2.65;;;;;;;13.99;85.24;101450.56;10556094;27;20463;-76
2022/04/09 13:46:31;;;;;;;2.70;2.50;;;;;;;13.90;85.63;101443.63;10549473;28;20086;-76
2022/04/09 13:51:32;;;;;;;1.70;1.52;;;;;;;14.24;81.20;101448.09;10535939;28;20036;-76
2022/04/09 13:56:32;;;;;;;5.70;1.73;;;;;;;14.24;83.62;101441.81;10546868;28;20036;-76
2022/04/09 14:01:32;;;;;;;5.35;2.00;;;;;;;13.38;78.10;101450.59;10548647;28;20040;-76
2022/04/09 14:06:33;;;;;;;4.20;2.38;;;;;;;12.96;87.73;101460.59;10527611;28;20024;-78
2022/04/09 14:11:34;;;;;;;4.32;3.05;;;;;;;13.22;80.11;101449.03;10549424;28;20063;-76
2022/04/09 14:16:34;;;;;;;8.13;2.92;;;;;;;13.40;80.12;101445.78;10546974;28;20177;-75
2022/04/09 14:21:35;;;;;;;2.60;2.13;;;;;;;14.04;78.85;101434.47;10535196;28;20041;-76
2022/04/09 14:26:36;;;;;;;6.40;1.80;;;;;;;13.78;84.73;101432.50;10535649;28;20488;-76
2022/04/09 14:31:36;;;;;;;2.88;1.98;;;;;;;12.91;84.94;101446.75;10510262;28;20044;-76
2022/04/09 14:36:37;;;;;;;2.42;2.22;;;;;;;12.26;79.98;101437.91;10513919;28;20033;-76
2022/04/09 14:41:37;;;;;;;3.33;2.42;;;;;;;11.77;79.23;101444.06;10507190;28;20075;-74
2022/04/09 14:46:38;;;;;;;9.50;2.58;;;;;;;11.64;84.30;101447.47;10474350;28;20037;-76
2022/04/09 14:51:38;;;;;;;4.80;3.30;;;;;;;10.56;75.81;101496.81;10399167;28;20083;-75
2022/04/09 14:56:38;;;;;;;4.88;2.17;;;;;;;8.66;88.61;101514.09;10421024;28;20033;-76
2022/04/09 15:01:39;;;;;;;4.03;2.15;;;;;;;7.65;91.61;101539.34;10422917;28;20034;-76
2022/04/09 15:06:40;;;;;;;9.27;2.80;;;;;;;7.26;95.91;101530.09;10406708;28;20157;-76
2022/04/09 15:11:40;;;;;;;4.45;2.20;;;;;;;7.15;98.44;101525.81;10443035;28;20523;-76
2022/04/09 15:16:41;;;;;;;4.38;2.42;;;;;;;7.15;97.83;101528.53;10434322;28;20113;-76
2022/04/09 15:21:43;;;;;;;2.92;2.60;;;;;;;7.02;98.27;101520.88;10422979;28;20044;-75
2022/04/09 15:26:44;;;;;;;2.55;2.38;;;;;;;7.07;96.09;101517.69;10419610;28;20037;-75
2022/04/09 15:31:44;;;;;;;7.65;2.38;;;;;;;6.95;96.36;101517.94;10418405;28;20420;-76
2022/04/09 15:36:45;;;;;;;3.08;2.42;;;;;;;7.06;96.15;101526.78;10419051;28;20044;-75
2022/04/09 15:41:46;;;;;;;4.68;2.40;;;;;;;7.21;95.71;101526.03;10418170;28;20053;-75
2022/04/09 15:46:50;;;;;;;6.93;2.30;;;;;;;7.37;93.89;101533.34;10418064;28;20448;-75
2022/04/09 15:51:51;;;;;;;7.88;2.45;;;;;;;7.45;93.21;101535.22;10417245;28;20037;-75
2022/04/09 15:56:51;;;;;;;3.08;2.63;;;;;;;7.66;95.06;101538.34;10416953;28;20033;-75
2022/04/09 16:01:52;;;;;;;2.70;2.50;;;;;;;7.92;96.32;101529.34;10416913;28;20037;-74
2022/04/09 16:06:52;;;;;;;11.52;3.33;;;;;;;8.07;94.18;101541.19;10417977;28;20037;-74
2022/04/09 16:11:53;;;;;;;11.07;3.22;;;;;;;7.50;87.33;101535.59;10416448;28;20026;-75
2022/04/09 16:16:53;;;;;;;3.85;2.30;;;;;;;7.30;85.14;101544.91;10415886;28;20381;-75
2022/04/09 16:21:57;;;;;;;12.02;2.92;;;;;;;7.18;86.66;101547.91;10417416;28;20493;-75
2022/04/09 16:26:58;;;;;;;12.80;3.17;;;;;;;6.99;85.64;101542.72;10416809;28;20048;-75
2022/04/09 16:31:58;;;;;;;16.67;4.75;;;;;;;6.86;82.74;101558.44;10417502;28;20029;-75
2022/04/09 16:36:58;;;;;;;5.60;2.88;;;;;;;6.77;83.45;101559.41;10416205;28;20033;-76
2022/04/09 16:41:59;;;;;;;10.63;2.65;;;;;;;6.76;84.00;101577.38;10415632;28;20072;-74
2022/04/09 16:46:59;;;;;;;6.25;2.42;;;;;;;6.73;83.76;101580.38;10416267;28;20040;-75
2022/04/09 16:52:00;;;;;;;14.52;3.67;;;;;;;6.68;84.61;101566.56;10416220;28;20550;-75
2022/04/09 16:57:00;;;;;;;10.05;3.72;;;;;;;6.75;85.50;101576.53;10416290;28;20038;-75
2022/04/09 17:02:01;;;;;;;4.15;3.53;;;;;;;6.75;85.66;101576.53;10415775;28;20397;-75
2022/04/09 17:07:02;;;;;;;11.00;4.20;;;;;;;6.68;86.89;101578.16;10415996;28;20057;-75
2022/04/09 17:12:03;;;;;;;6.10;2.78;;;;;;;6.57;86.41;101581.06;10414237;28;20033;-75
2022/04/09 17:17:04;;;;;;;4.40;2.90;;;;;;;6.51;86.78;101584.41;10413581;28;20030;-75
2022/04/09 17:22:04;;;;;;;4.20;2.67;;;;;;;6.41;86.40;101591.69;10416081;28;20037;-75
2022/04/09 17:27:04;;;;;;;1.90;1.80;;;;;;;6.34;86.06;101587.94;10413955;28;20389;-75
2022/04/09 17:32:05;;;;;;;4.20;2.13;;;;;;;6.29;86.26;101599.16;10413774;28;20463;-76
2022/04/09 17:37:06;;;;;;;7.38;2.83;;;;;;;6.23;86.98;101584.47;10414168;28;20041;-74
2022/04/09 17:42:06;;;;;;;8.73;2.38;;;;;;;6.08;87.60;101595.88;10414731;28;20041;-74
2022/04/09 17:47:07;;;;;;;4.38;2.60;;;;;;;6.04;87.56;101596.19;10413111;28;20408;-74
2022/04/09 17:52:08;;;;;;;4.72;2.60;;;;;;;6.04;87.56;101598.88;10414539;28;20025;-75
2022/04/09 17:57:08;;;;;;;6.07;2.67;;;;;;;5.96;87.83;101592.56;10416073;28;20038;-75
2022/04/09 18:02:09;;;;;;;11.23;3.78;;;;;;;5.85;89.04;101600.81;10414058;28;20493;-74
2022/04/09 18:07:09;;;;;;;11.15;4.25;;;;;;;5.82;89.41;101610.84;10414336;28;20038;-74
2022/04/09 18:12:10;;;;;;;2.13;2.03;;;;;;;5.71;89.55;101611.06;10414181;28;20470;-74
2022/04/09 18:17:10;;;;;;;4.88;2.78;;;;;;;5.63;89.90;101628.91;10413389;28;20047;-74
2022/04/09 18:22:11;;;;;;;6.82;3.05;;;;;;;5.56;89.73;101632.19;10414271;28;20042;-74
2022/04/09 18:27:11;;;;;;;9.27;2.83;;;;;;;5.46;89.28;101633.22;10419610;28;20401;-74
2022/04/09 18:32:12;;;;;;;11.07;3.47;;;;;;;5.40;89.08;101637.31;10421210;28;20359;-74
2022/04/09 18:37:12;;;;;;;5.38;3.15;;;;;;;5.37;89.58;101640.31;10419709;28;20040;-74
2022/04/09 18:42:13;;;;;;;9.00;3.15;;;;;;;5.29;89.25;101648.22;10419590;28;20087;-74
2022/04/09 18:47:13;;;;;;;6.55;2.88;;;;;;;5.11;90.28;101646.28;10420545;28;20034;-74
2022/04/09 18:52:15;;;;;;;5.57;2.55;;;;;;;5.18;89.74;101651.09;10420765;28;20041;-74
2022/04/09 18:57:15;;;;;;;6.88;2.80;;;;;;;5.20;89.47;101660.69;10420439;28;20346;-74
2022/04/09 19:02:15;;;;;;;14.13;3.88;;;;;;;5.17;89.55;101669.03;10420345;28;20080;-75
2022/04/09 19:07:16;;;;;;;19.70;9.07;;;;;;;5.11;89.17;101666.94;10420264;28;20068;-74
2022/04/09 19:12:16;;;;;;;6.53;4.50;;;;;;;5.16;89.51;101677.22;10419324;28;20034;-75
2022/04/09 19:17:16;;;;;;;7.22;3.00;;;;;;;5.26;90.23;101678.88;10419373;28;20033;-74
2022/04/09 19:22:17;;;;;;;8.35;2.22;;;;;;;5.39;91.05;101689.31;10418161;28;20033;-74
2022/04/09 19:27:17;;;;;;;7.95;2.75;;;;;;;5.56;91.98;101699.34;10419554;28;20037;-74
2022/04/09 19:32:18;;;;;;;6.80;3.03;;;;;;;5.73;91.56;101699.59;10419864;28;20091;-74
2022/04/09 19:37:18;;;;;;;5.15;2.63;;;;;;;5.70;92.01;101703.41;10417738;28;20036;-74
2022/04/09 19:42:19;;;;;;;5.45;2.83;;;;;;;5.67;90.43;101701.00;10417350;28;20049;-74
2022/04/09 19:47:20;;;;;;;5.75;2.85;;;;;;;5.61;90.67;101706.97;10418343;28;20034;-75
2022/04/09 19:52:21;;;;;;;7.50;2.08;;;;;;;5.47;89.88;101710.97;10418454;28;20037;-74
2022/04/09 19:57:22;;;;;;;4.97;1.88;;;;;;;5.24;89.81;101712.28;10418127;28;20029;-74
2022/04/09 20:02:23;;;;;;;7.20;2.88;;;;;;;5.17;90.02;101721.88;10418660;28;20041;-74
2022/04/09 20:07:23;;;;;;;5.65;1.83;;;;;;;5.18;90.61;101721.75;10417993;28;20029;-74
2022/04/09 20:12:24;;;;;;;3.25;2.70;;;;;;;5.16;90.05;101734.44;10418527;28;20049;-75
2022/04/09 20:17:24;;;;;;;7.45;3.10;;;;;;;5.04;89.68;101738.25;10417449;28;20478;-74
2022/04/09 20:22:26;;;;;;;6.30;3.42;;;;;;;4.97;89.88;101739.81;10417768;28;20051;-74
2022/04/09 20:27:26;;;;;;;16.55;3.85;;;;;;;4.86;89.29;101744.34;10417700;28;20091;-74
2022/04/09 20:32:27;;;;;;;4.60;3.13;;;;;;;4.80;89.85;101754.78;10415823;28;20079;-74
2022/04/09 20:37:27;;;;;;;5.00;2.38;;;;;;;4.75;90.03;101755.19;10417160;28;20036;-74
2022/04/09 20:42:28;;;;;;;10.73;3.50;;;;;;;4.70;89.68;101760.13;10416987;28;20060;-74
2022/04/09 20:47:28;;;;;;;5.03;3.33;;;;;;;4.60;89.49;101756.56;10415219;28;20434;-74
2022/04/09 20:52:28;;;;;;;10.00;3.70;;;;;;;4.62;90.36;101752.75;10415094;28;20477;-74
2022/04/09 20:57:29;;;;;;;8.32;3.42;;;;;;;4.66;91.44;101769.44;10415885;28;20120;-74
2022/04/09 21:02:30;;;;;;;4.13;2.65;;;;;;;4.72;90.92;101760.81;10415216;28;20397;-74
2022/04/09 21:07:30;;;;;;;6.05;3.38;;;;;;;4.71;90.03;101777.06;10414851;28;20034;-73
2022/04/09 21:12:31;;;;;;;13.00;3.30;;;;;;;4.68;90.17;101778.19;10414177;28;20091;-74
2022/04/09 21:17:31;;;;;;;12.00;3.13;;;;;;;4.85;91.64;101785.59;10415648;28;20084;-74
2022/04/09 21:22:31;;;;;;;7.63;2.65;;;;;;;4.90;91.76;101785.16;10415337;28;20075;-74
2022/04/09 21:27:32;;;;;;;10.10;2.50;;;;;;;4.99;92.76;101773.59;10414961;28;20030;-74
2022/04/09 21:32:32;;;;;;;15.25;3.17;;;;;;;5.08;92.42;101782.66;10415576;28;20037;-74
2022/04/09 21:37:33;;;;;;;9.85;3.05;;;;;;;5.04;91.57;101787.44;10415111;28;20492;-75
2022/04/09 21:42:34;;;;;;;17.00;3.00;;;;;;;4.93;90.98;101795.63;10413365;28;20336;-74
2022/04/09 21:47:35;;;;;;;8.93;3.45;;;;;;;4.76;90.67;101802.50;10414258;28;20393;-75
2022/04/09 21:52:35;;;;;;;11.75;3.50;;;;;;;4.71;91.24;101802.06;10413754;28;20125;-74
2022/04/09 21:57:36;;;;;;;5.40;2.53;;;;;;;4.60;90.53;101804.88;10414527;28;20041;-75
2022/04/09 22:02:38;;;;;;;16.35;3.65;;;;;;;4.48;90.54;101819.34;10421929;28;20413;-74
2022/04/09 22:07:38;;;;;;;14.23;6.00;;;;;;;4.38;90.55;101830.03;10423728;28;20049;-74
2022/04/09 22:12:39;;;;;;;19.02;3.97;;;;;;;4.34;90.28;101829.47;10426022;28;20444;-74
2022/04/09 22:17:39;;;;;;;11.35;2.40;;;;;;;4.31;90.66;101832.41;10425477;28;20053;-74
2022/04/09 22:22:39;;;;;;;6.97;3.50;;;;;;;4.29;90.32;101829.00;10425189;28;20038;-73
2022/04/09 22:27:40;;;;;;;8.55;5.63;;;;;;;4.22;89.66;101833.22;10423227;28;20494;-73
2022/04/09 22:32:40;;;;;;;10.50;3.70;;;;;;;4.14;89.54;101833.00;10422986;28;20041;-74
2022/04/09 22:37:41;;;;;;;8.27;3.00;;;;;;;4.16;90.20;101841.78;10424431;28;20038;-74
2022/04/09 22:42:41;;;;;;;5.28;2.55;;;;;;;4.19;90.42;101839.69;10424083;28;20081;-73
2022/04/09 22:47:42;;;;;;;5.18;3.72;;;;;;;4.21;90.23;101831.50;10420492;28;20492;-74
2022/04/09 22:52:42;;;;;;;6.32;2.78;;;;;;;4.19;90.48;101838.84;10420749;28;20053;-73
2022/04/09 22:57:43;;;;;;;6.60;3.13;;;;;;;4.16;90.38;101842.63;10420569;28;20044;-73
2022/04/09 23:02:43;;;;;;;16.63;3.78;;;;;;;4.12;90.29;101849.25;10420818;28;20409;-74
2022/04/09 23:07:43;;;;;;;12.95;3.50;;;;;;;4.05;89.87;101856.13;10420712;28;20108;-73